sensor_id;sensor_type;location;lat;lon;timestamp;temperature;humidity
12847;DHT22;6492;48.128;8.320;2022-07-22T03:09:46;13.10;55.70
12847;DHT22;6492;48.128;8.320;2022-07-22T04:14:53;13.10;59.30
12847;DHT22;6492;48.128;8.320;2022-07-22T04:54:47;13.30;57.40
12847;DHT22;6492;48.128;8.320;2022-07-22T04:58:56;13.40;57.40
12847;DHT22;6492;48.128;8.320;2022-07-22T05:02:58;13.40;57.90
12847;DHT22;6492;48.128;8.320;2022-07-22T05:07:00;13.50;57.20
12847;DHT22;6492;48.128;8.320;2022-07-22T05:11:04;13.50;56.90
12847;DHT22;6492;48.128;8.320;2022-07-22T06:44:29;18.80;29.70
12847;DHT22;6492;48.128;8.320;2022-07-22T06:48:31;20.80;22.90
12847;DHT22;6492;48.128;8.320;2022-07-22T06:52:33;22.80;14.40
12847;DHT22;6492;48.128;8.320;2022-07-22T06:56:34;24.50;8.30
12847;DHT22;6492;48.128;8.320;2022-07-22T07:00:38;25.50;4.70
12847;DHT22;6492;48.128;8.320;2022-07-22T07:04:40;26.60;1.60
12847;DHT22;6492;48.128;8.320;2022-07-22T07:08:42;27.60;1.00
12847;DHT22;6492;48.128;8.320;2022-07-22T07:12:43;28.60;1.00
12847;DHT22;6492;48.128;8.320;2022-07-22T07:16:46;29.00;1.00
12847;DHT22;6492;48.128;8.320;2022-07-22T07:20:48;29.70;1.00
12847;DHT22;6492;48.128;8.320;2022-07-22T07:24:50;29.80;1.00
12847;DHT22;6492;48.128;8.320;2022-07-22T07:29:01;30.20;1.00
12847;DHT22;6492;48.128;8.320;2022-07-22T07:33:04;30.40;1.00
12847;DHT22;6492;48.128;8.320;2022-07-22T07:37:10;30.50;1.00
12847;DHT22;6492;48.128;8.320;2022-07-22T07:41:12;30.80;1.00
12847;DHT22;6492;48.128;8.320;2022-07-22T07:45:15;31.10;1.00
12847;DHT22;6492;48.128;8.320;2022-07-22T07:49:18;31.20;1.00
12847;DHT22;6492;48.128;8.320;2022-07-22T07:53:20;31.30;1.00
12847;DHT22;6492;48.128;8.320;2022-07-22T07:57:21;31.20;1.00
12847;DHT22;6492;48.128;8.320;2022-07-22T08:01:23;31.40;1.00
12847;DHT22;6492;48.128;8.320;2022-07-22T08:05:26;31.80;1.00
12847;DHT22;6492;48.128;8.320;2022-07-22T08:09:29;31.80;1.00
12847;DHT22;6492;48.128;8.320;2022-07-22T08:13:31;31.90;1.00
12847;DHT22;6492;48.128;8.320;2022-07-22T08:17:33;32.30;1.00
12847;DHT22;6492;48.128;8.320;2022-07-22T08:21:38;32.50;1.00
12847;DHT22;6492;48.128;8.320;2022-07-22T08:25:41;32.40;1.00
12847;DHT22;6492;48.128;8.320;2022-07-22T08:29:43;32.20;1.00
12847;DHT22;6492;48.128;8.320;2022-07-22T08:33:46;32.00;1.00
12847;DHT22;6492;48.128;8.320;2022-07-22T08:37:49;31.80;1.00
12847;DHT22;6492;48.128;8.320;2022-07-22T08:41:51;31.80;1.00
12847;DHT22;6492;48.128;8.320;2022-07-22T08:45:53;32.20;1.00
12847;DHT22;6492;48.128;8.320;2022-07-22T08:49:56;32.50;1.00
12847;DHT22;6492;48.128;8.320;2022-07-22T08:53:59;32.40;1.00
12847;DHT22;6492;48.128;8.320;2022-07-22T08:58:02;32.10;1.00
12847;DHT22;6492;48.128;8.320;2022-07-22T09:02:06;31.80;1.00
12847;DHT22;6492;48.128;8.320;2022-07-22T09:06:08;31.40;1.00
12847;DHT22;6492;48.128;8.320;2022-07-22T09:10:14;31.20;1.00
12847;DHT22;6492;48.128;8.320;2022-07-22T09:14:16;30.80;1.00
12847;DHT22;6492;48.128;8.320;2022-07-22T09:18:17;30.60;1.00
12847;DHT22;6492;48.128;8.320;2022-07-22T09:22:36;30.30;1.00
12847;DHT22;6492;48.128;8.320;2022-07-22T09:26:39;30.20;1.00
12847;DHT22;6492;48.128;8.320;2022-07-22T09:30:47;30.30;1.00
12847;DHT22;6492;48.128;8.320;2022-07-22T09:35:01;30.60;1.00
12847;DHT22;6492;48.128;8.320;2022-07-22T09:39:26;30.50;1.00
12847;DHT22;6492;48.128;8.320;2022-07-22T09:43:35;30.70;1.00
12847;DHT22;6492;48.128;8.320;2022-07-22T09:47:41;30.90;1.00
12847;DHT22;6492;48.128;8.320;2022-07-22T09:51:43;31.20;1.00
12847;DHT22;6492;48.128;8.320;2022-07-22T09:55:45;31.30;1.00
12847;DHT22;6492;48.128;8.320;2022-07-22T09:59:48;31.50;1.00
12847;DHT22;6492;48.128;8.320;2022-07-22T10:03:53;31.50;1.00
12847;DHT22;6492;48.128;8.320;2022-07-22T10:07:56;31.50;1.00
12847;DHT22;6492;48.128;8.320;2022-07-22T10:11:58;31.50;1.00
12847;DHT22;6492;48.128;8.320;2022-07-22T10:16:03;31.90;1.00
12847;DHT22;6492;48.128;8.320;2022-07-22T10:20:06;32.10;1.00
12847;DHT22;6492;48.128;8.320;2022-07-22T10:24:10;31.90;1.00
12847;DHT22;6492;48.128;8.320;2022-07-22T10:28:20;31.80;1.00
12847;DHT22;6492;48.128;8.320;2022-07-22T10:32:25;31.70;1.00
12847;DHT22;6492;48.128;8.320;2022-07-22T10:36:33;32.30;1.00
12847;DHT22;6492;48.128;8.320;2022-07-22T10:40:52;32.60;1.00
12847;DHT22;6492;48.128;8.320;2022-07-22T10:44:57;33.10;1.00
12847;DHT22;6492;48.128;8.320;2022-07-22T10:49:00;33.30;1.00
12847;DHT22;6492;48.128;8.320;2022-07-22T10:53:06;33.50;1.00
12847;DHT22;6492;48.128;8.320;2022-07-22T10:57:08;33.80;1.00
12847;DHT22;6492;48.128;8.320;2022-07-22T11:01:11;34.10;1.00
12847;DHT22;6492;48.128;8.320;2022-07-22T11:05:24;34.50;1.00
12847;DHT22;6492;48.128;8.320;2022-07-22T11:09:32;35.00;1.00
12847;DHT22;6492;48.128;8.320;2022-07-22T11:13:35;35.20;1.00
12847;DHT22;6492;48.128;8.320;2022-07-22T11:17:38;34.80;1.00
12847;DHT22;6492;48.128;8.320;2022-07-22T11:21:42;34.60;1.00
12847;DHT22;6492;48.128;8.320;2022-07-22T11:25:51;34.40;1.00
12847;DHT22;6492;48.128;8.320;2022-07-22T11:29:54;34.80;1.00
12847;DHT22;6492;48.128;8.320;2022-07-22T11:34:08;35.20;1.00
12847;DHT22;6492;48.128;8.320;2022-07-22T11:38:48;35.60;1.00
12847;DHT22;6492;48.128;8.320;2022-07-22T11:43:00;35.90;1.00
12847;DHT22;6492;48.128;8.320;2022-07-22T11:47:03;36.10;1.00
12847;DHT22;6492;48.128;8.320;2022-07-22T11:51:06;36.00;1.00
12847;DHT22;6492;48.128;8.320;2022-07-22T11:55:16;36.00;1.00
12847;DHT22;6492;48.128;8.320;2022-07-22T11:59:18;36.30;1.00
12847;DHT22;6492;48.128;8.320;2022-07-22T12:03:35;35.80;1.00
12847;DHT22;6492;48.128;8.320;2022-07-22T12:07:37;36.20;1.00
12847;DHT22;6492;48.128;8.320;2022-07-22T12:11:44;36.10;1.00
12847;DHT22;6492;48.128;8.320;2022-07-22T12:15:46;36.30;1.00
12847;DHT22;6492;48.128;8.320;2022-07-22T12:19:48;36.70;1.00
12847;DHT22;6492;48.128;8.320;2022-07-22T12:23:55;36.70;1.00
12847;DHT22;6492;48.128;8.320;2022-07-22T12:28:13;37.00;1.00
12847;DHT22;6492;48.128;8.320;2022-07-22T12:32:17;37.30;1.00
12847;DHT22;6492;48.128;8.320;2022-07-22T12:36:38;37.70;1.00
12847;DHT22;6492;48.128;8.320;2022-07-22T12:40:52;37.70;1.00
12847;DHT22;6492;48.128;8.320;2022-07-22T12:45:24;37.10;1.00
12847;DHT22;6492;48.128;8.320;2022-07-22T12:49:28;36.90;1.00
12847;DHT22;6492;48.128;8.320;2022-07-22T12:53:29;37.30;1.00
12847;DHT22;6492;48.128;8.320;2022-07-22T12:57:35;37.30;1.00
12847;DHT22;6492;48.128;8.320;2022-07-22T13:01:39;37.60;1.00
12847;DHT22;6492;48.128;8.320;2022-07-22T13:05:41;37.80;1.00
12847;DHT22;6492;48.128;8.320;2022-07-22T13:09:50;38.00;1.00
12847;DHT22;6492;48.128;8.320;2022-07-22T13:13:53;38.30;1.00
12847;DHT22;6492;48.128;8.320;2022-07-22T13:17:56;38.10;1.00
12847;DHT22;6492;48.128;8.320;2022-07-22T13:21:58;37.30;1.00
12847;DHT22;6492;48.128;8.320;2022-07-22T13:26:00;37.30;1.00
12847;DHT22;6492;48.128;8.320;2022-07-22T13:30:03;38.00;1.00
12847;DHT22;6492;48.128;8.320;2022-07-22T13:34:06;38.40;1.00
12847;DHT22;6492;48.128;8.320;2022-07-22T13:38:08;38.30;1.00
12847;DHT22;6492;48.128;8.320;2022-07-22T13:42:10;37.50;1.00
12847;DHT22;6492;48.128;8.320;2022-07-22T13:46:12;36.00;1.00
12847;DHT22;6492;48.128;8.320;2022-07-22T13:50:15;34.70;1.00
12847;DHT22;6492;48.128;8.320;2022-07-22T13:54:29;34.00;1.00
12847;DHT22;6492;48.128;8.320;2022-07-22T13:58:31;33.90;1.00
12847;DHT22;6492;48.128;8.320;2022-07-22T14:02:34;33.80;1.00
12847;DHT22;6492;48.128;8.320;2022-07-22T14:06:38;34.10;1.00
12847;DHT22;6492;48.128;8.320;2022-07-22T14:10:40;34.40;1.00
12847;DHT22;6492;48.128;8.320;2022-07-22T14:14:42;34.70;1.00
12847;DHT22;6492;48.128;8.320;2022-07-22T14:18:44;34.70;1.00
12847;DHT22;6492;48.128;8.320;2022-07-22T14:22:55;34.80;1.00
12847;DHT22;6492;48.128;8.320;2022-07-22T14:26:57;35.10;1.00
12847;DHT22;6492;48.128;8.320;2022-07-22T14:30:59;35.20;1.00
12847;DHT22;6492;48.128;8.320;2022-07-22T14:35:00;35.20;1.00
12847;DHT22;6492;48.128;8.320;2022-07-22T14:39:04;35.10;1.00
12847;DHT22;6492;48.128;8.320;2022-07-22T14:43:07;35.00;1.00
12847;DHT22;6492;48.128;8.320;2022-07-22T14:47:09;34.70;1.00
12847;DHT22;6492;48.128;8.320;2022-07-22T14:51:30;34.60;1.00
12847;DHT22;6492;48.128;8.320;2022-07-22T14:55:36;34.10;1.00
12847;DHT22;6492;48.128;8.320;2022-07-22T14:59:38;33.70;1.00
12847;DHT22;6492;48.128;8.320;2022-07-22T15:03:40;33.40;1.00
12847;DHT22;6492;48.128;8.320;2022-07-22T15:07:43;33.30;1.00
12847;DHT22;6492;48.128;8.320;2022-07-22T15:11:47;32.90;1.00
12847;DHT22;6492;48.128;8.320;2022-07-22T15:16:11;32.80;1.00
12847;DHT22;6492;48.128;8.320;2022-07-22T15:20:13;32.90;1.00
12847;DHT22;6492;48.128;8.320;2022-07-22T15:24:15;33.20;1.00
12847;DHT22;6492;48.128;8.320;2022-07-22T15:28:18;33.30;1.00
12847;DHT22;6492;48.128;8.320;2022-07-22T15:32:20;33.70;1.00
12847;DHT22;6492;48.128;8.320;2022-07-22T15:36:21;33.80;1.00
12847;DHT22;6492;48.128;8.320;2022-07-22T15:40:23;33.60;1.00
12847;DHT22;6492;48.128;8.320;2022-07-22T15:44:27;33.30;1.00
12847;DHT22;6492;48.128;8.320;2022-07-22T15:48:29;33.30;1.00
12847;DHT22;6492;48.128;8.320;2022-07-22T15:52:40;33.40;1.00
12847;DHT22;6492;48.128;8.320;2022-07-22T15:56:42;33.40;1.00
12847;DHT22;6492;48.128;8.320;2022-07-22T16:00:45;33.00;1.00
12847;DHT22;6492;48.128;8.320;2022-07-22T16:04:48;32.70;1.00
12847;DHT22;6492;48.128;8.320;2022-07-22T16:08:50;32.60;1.00
12847;DHT22;6492;48.128;8.320;2022-07-22T16:12:52;32.50;1.00
12847;DHT22;6492;48.128;8.320;2022-07-22T16:16:55;32.50;1.00
12847;DHT22;6492;48.128;8.320;2022-07-22T16:20:57;32.40;1.00
12847;DHT22;6492;48.128;8.320;2022-07-22T16:25:07;32.70;1.00
12847;DHT22;6492;48.128;8.320;2022-07-22T16:29:09;32.80;1.00
12847;DHT22;6492;48.128;8.320;2022-07-22T16:33:12;32.40;1.00
12847;DHT22;6492;48.128;8.320;2022-07-22T16:37:14;31.90;1.00
12847;DHT22;6492;48.128;8.320;2022-07-22T16:41:18;31.80;1.00
12847;DHT22;6492;48.128;8.320;2022-07-22T16:45:23;31.70;1.00
12847;DHT22;6492;48.128;8.320;2022-07-22T16:49:28;31.70;1.00
12847;DHT22;6492;48.128;8.320;2022-07-22T16:53:30;31.50;1.00
12847;DHT22;6492;48.128;8.320;2022-07-22T16:57:32;31.40;1.00
12847;DHT22;6492;48.128;8.320;2022-07-22T17:01:34;31.20;1.00
12847;DHT22;6492;48.128;8.320;2022-07-22T17:05:37;30.40;1.00
12847;DHT22;6492;48.128;8.320;2022-07-22T17:09:39;29.60;1.00
12847;DHT22;6492;48.128;8.320;2022-07-22T17:13:41;29.10;1.00
12847;DHT22;6492;48.128;8.320;2022-07-22T17:17:45;28.90;1.00
12847;DHT22;6492;48.128;8.320;2022-07-22T17:21:48;28.70;1.00
12847;DHT22;6492;48.128;8.320;2022-07-22T17:25:50;28.50;1.00
12847;DHT22;6492;48.128;8.320;2022-07-22T17:29:52;28.30;1.00
12847;DHT22;6492;48.128;8.320;2022-07-22T17:33:56;28.00;1.00
12847;DHT22;6492;48.128;8.320;2022-07-22T17:38:01;27.80;1.00
12847;DHT22;6492;48.128;8.320;2022-07-22T17:42:04;27.60;1.00
12847;DHT22;6492;48.128;8.320;2022-07-22T17:46:06;27.30;1.00
12847;DHT22;6492;48.128;8.320;2022-07-22T17:50:08;27.00;1.00
12847;DHT22;6492;48.128;8.320;2022-07-22T17:54:19;26.90;1.00
12847;DHT22;6492;48.128;8.320;2022-07-22T17:58:24;26.70;1.00
12847;DHT22;6492;48.128;8.320;2022-07-22T18:02:26;26.60;1.00
12847;DHT22;6492;48.128;8.320;2022-07-22T18:06:28;26.40;1.00
12847;DHT22;6492;48.128;8.320;2022-07-22T18:10:32;26.30;1.00
12847;DHT22;6492;48.128;8.320;2022-07-22T18:14:34;26.10;1.00
12847;DHT22;6492;48.128;8.320;2022-07-22T18:18:36;26.00;1.00
12847;DHT22;6492;48.128;8.320;2022-07-22T18:22:38;25.90;1.00
12847;DHT22;6492;48.128;8.320;2022-07-22T18:26:41;25.80;1.00
12847;DHT22;6492;48.128;8.320;2022-07-22T18:30:43;25.60;1.00
12847;DHT22;6492;48.128;8.320;2022-07-22T18:34:45;25.30;1.00
12847;DHT22;6492;48.128;8.320;2022-07-22T18:38:47;25.10;1.00
12847;DHT22;6492;48.128;8.320;2022-07-22T18:42:50;24.90;1.00
12847;DHT22;6492;48.128;8.320;2022-07-22T18:46:52;24.60;1.00
12847;DHT22;6492;48.128;8.320;2022-07-22T18:50:56;24.40;1.30
12847;DHT22;6492;48.128;8.320;2022-07-22T18:54:59;24.20;1.70
12847;DHT22;6492;48.128;8.320;2022-07-22T18:59:03;24.00;1.80
12847;DHT22;6492;48.128;8.320;2022-07-22T19:03:05;23.80;2.20
12847;DHT22;6492;48.128;8.320;2022-07-22T19:07:09;23.70;3.10
12847;DHT22;6492;48.128;8.320;2022-07-22T19:11:20;23.60;3.70
12847;DHT22;6492;48.128;8.320;2022-07-22T19:15:29;23.50;3.90
12847;DHT22;6492;48.128;8.320;2022-07-22T19:19:31;23.40;4.70
12847;DHT22;6492;48.128;8.320;2022-07-22T19:23:38;23.20;5.30
12847;DHT22;6492;48.128;8.320;2022-07-22T19:27:42;23.20;5.50
12847;DHT22;6492;48.128;8.320;2022-07-22T19:31:48;23.10;5.70
12847;DHT22;6492;48.128;8.320;2022-07-22T19:35:50;22.90;6.40
12847;DHT22;6492;48.128;8.320;2022-07-22T19:39:52;22.90;6.30
12847;DHT22;6492;48.128;8.320;2022-07-22T19:43:54;22.70;7.20
12847;DHT22;6492;48.128;8.320;2022-07-22T19:47:57;22.50;7.80
12847;DHT22;6492;48.128;8.320;2022-07-22T19:51:59;22.30;8.20
12847;DHT22;6492;48.128;8.320;2022-07-22T19:56:01;22.20;8.90
12847;DHT22;6492;48.128;8.320;2022-07-22T20:00:07;22.10;9.50
12847;DHT22;6492;48.128;8.320;2022-07-22T20:04:11;21.90;9.60
12847;DHT22;6492;48.128;8.320;2022-07-22T20:08:12;21.90;9.80
12847;DHT22;6492;48.128;8.320;2022-07-22T20:12:15;21.80;10.00
12847;DHT22;6492;48.128;8.320;2022-07-22T20:16:17;21.80;10.40
12847;DHT22;6492;48.128;8.320;2022-07-22T20:20:20;21.70;10.90
12847;DHT22;6492;48.128;8.320;2022-07-22T20:24:23;21.70;11.30
12847;DHT22;6492;48.128;8.320;2022-07-22T20:28:25;21.60;11.60
12847;DHT22;6492;48.128;8.320;2022-07-22T20:32:30;21.50;12.20
12847;DHT22;6492;48.128;8.320;2022-07-22T20:36:33;21.50;12.50
12847;DHT22;6492;48.128;8.320;2022-07-22T20:40:35;21.50;12.70
12847;DHT22;6492;48.128;8.320;2022-07-22T20:44:37;21.50;12.40
12847;DHT22;6492;48.128;8.320;2022-07-22T20:48:39;21.40;12.70
12847;DHT22;6492;48.128;8.320;2022-07-22T20:52:43;21.40;12.90
12847;DHT22;6492;48.128;8.320;2022-07-22T20:56:47;21.30;13.40
12847;DHT22;6492;48.128;8.320;2022-07-22T21:00:52;21.20;14.60
12847;DHT22;6492;48.128;8.320;2022-07-22T21:04:54;21.20;14.10
12847;DHT22;6492;48.128;8.320;2022-07-22T21:08:58;21.20;14.80
12847;DHT22;6492;48.128;8.320;2022-07-22T21:13:00;21.10;14.90
12847;DHT22;6492;48.128;8.320;2022-07-22T21:17:06;21.10;15.00
12847;DHT22;6492;48.128;8.320;2022-07-22T21:21:08;21.00;15.50
12847;DHT22;6492;48.128;8.320;2022-07-22T21:25:12;20.90;15.70
12847;DHT22;6492;48.128;8.320;2022-07-22T21:29:13;20.80;15.90
12847;DHT22;6492;48.128;8.320;2022-07-22T21:33:15;20.80;16.40
12847;DHT22;6492;48.128;8.320;2022-07-22T21:37:17;20.80;16.50
12847;DHT22;6492;48.128;8.320;2022-07-22T21:41:21;20.80;16.90
12847;DHT22;6492;48.128;8.320;2022-07-22T21:45:23;20.80;17.10
12847;DHT22;6492;48.128;8.320;2022-07-22T21:49:24;20.80;18.90
12847;DHT22;6492;48.128;8.320;2022-07-22T21:53:26;20.80;18.50
12847;DHT22;6492;48.128;8.320;2022-07-22T21:57:30;20.70;18.80
12847;DHT22;6492;48.128;8.320;2022-07-22T22:01:31;20.70;19.40
12847;DHT22;6492;48.128;8.320;2022-07-22T22:05:33;20.70;20.90
12847;DHT22;6492;48.128;8.320;2022-07-22T22:09:35;20.60;21.80
